< < Back
Terminal Aerodrome Forecast


Current Version              Previous Versions:   1  2  3  4  5  6  7  8  9  

Terminal Aerodrome Forecast

282
FTUS42 KCAE 012300
TAFAGS
TAF
KAGS 012329Z 0200/0224 VRB03KT P6SM VCSH BKN015
     FM020900 VRB03KT 4SM BR OVC007
     FM021500 06005KT P6SM VCSH BKN015 BKN040=

Latest METAR

683
SAUS70 KWBC 020556
MTRAGS
METAR KAGS 020553Z AUTO 03005KT 8SM OVC009 21/19 A3005 RMK AO2 SLP174
T02110194 10233 20211 58004


USA.gov is the U.S. government's official web portal to all federal, state and local government web resources and services.